createdAt,value
2019-04-23T00:01:46.368Z,99857.42
2019-04-23T00:07:51.953Z,99843.98
2019-04-23T00:14:02.740Z,99832.44
2019-04-23T00:20:04.522Z,99823.84
2019-04-23T00:26:13.152Z,99823.72
2019-04-23T00:32:21.722Z,99820.81
2019-04-23T00:44:41.463Z,99807.54
2019-04-23T00:50:44.953Z,99818.51
2019-04-23T00:56:54.518Z,99813.88
2019-04-23T01:02:59.086Z,99812.95
2019-04-23T01:09:03.662Z,99807.85
2019-04-23T01:21:03.420Z,99802.71
2019-04-23T01:33:45.315Z,99797.41
2019-04-23T01:39:52.809Z,99787.66
2019-04-23T01:46:02.745Z,99791.06
2019-04-23T01:52:09.444Z,99792.00
2019-04-23T01:58:32.194Z,99782.06
2019-04-23T02:04:22.938Z,99781.81
2019-04-23T02:10:39.524Z,99774.20
2019-04-23T02:23:11.671Z,99766.09
2019-04-23T02:29:26.610Z,99757.55
2019-04-23T02:35:50.527Z,99767.20
2019-04-23T02:41:46.560Z,99751.80
2019-04-23T02:47:46.630Z,99750.21
2019-04-23T03:00:18.925Z,99728.39
2019-04-23T03:12:14.728Z,99710.92
2019-04-23T03:24:45.776Z,99697.58
2019-04-23T03:43:07.070Z,99688.82
2019-04-23T03:49:07.108Z,99694.53
2019-04-23T03:55:31.501Z,99696.90
2019-04-23T04:01:45.325Z,99688.28
2019-04-23T04:08:56.248Z,99688.13
2019-04-23T04:13:58.259Z,99687.39
2019-04-23T04:25:56.759Z,99694.60
2019-04-23T04:32:06.470Z,99691.99
2019-04-23T04:38:25.780Z,99689.30
2019-04-23T04:44:37.695Z,99683.22
2019-04-23T04:50:28.821Z,99679.66
2019-04-23T04:56:40.447Z,99671.44
2019-04-23T05:03:03.263Z,99667.23
2019-04-23T05:08:55.255Z,99658.45
2019-04-23T05:15:04.612Z,99655.36
2019-04-23T05:27:32.213Z,99648.91
2019-04-23T05:33:17.059Z,99645.48
2019-04-23T05:39:30.616Z,99651.73
2019-04-23T05:45:38.241Z,99659.65
2019-04-23T05:57:45.729Z,99647.03
2019-04-23T06:04:03.728Z,99635.86
2019-04-23T06:10:06.455Z,99632.36
2019-04-23T06:16:19.815Z,99628.78
2019-04-23T06:28:27.698Z,99618.16
2019-04-23T06:34:50.103Z,99613.16
2019-04-23T06:40:43.550Z,99605.17
2019-04-23T06:52:57.276Z,99588.48
2019-04-23T06:59:10.914Z,99585.44
2019-04-23T07:17:24.512Z,99575.91
2019-04-23T07:29:50.615Z,99556.66
2019-04-23T07:35:51.924Z,99550.85
2019-04-23T07:48:16.566Z,99542.64
2019-04-23T07:54:41.321Z,99526.87
2019-04-23T08:00:45.487Z,99528.49
2019-04-23T08:06:52.430Z,99518.75
2019-04-23T08:13:00.952Z,99514.19
2019-04-23T08:19:26.298Z,99516.02
2019-04-23T08:25:27.085Z,99510.04
2019-04-23T08:31:40.274Z,99500.92
2019-04-23T08:44:06.205Z,99486.05
2019-04-23T08:49:50.745Z,99484.30
2019-04-23T08:56:08.712Z,99476.58
2019-04-23T09:02:23.978Z,99466.06
2019-04-23T09:08:23.397Z,99456.03
2019-04-23T09:14:23.127Z,99447.64
2019-04-23T09:20:34.277Z,99446.12
2019-04-23T09:26:40.084Z,99441.38
2019-04-23T09:33:04.113Z,99439.59
2019-04-23T09:39:22.521Z,99430.54
2019-04-23T09:45:33.880Z,99432.80
2019-04-23T09:57:51.933Z,99421.84
2019-04-23T10:03:41.645Z,99417.22
2019-04-23T10:09:38.368Z,99405.52
2019-04-23T10:15:46.738Z,99395.95
2019-04-23T10:21:53.252Z,99386.86
2019-04-23T10:28:03.201Z,99378.61
2019-04-23T10:34:08.267Z,99372.78
2019-04-23T10:40:19.454Z,99368.52
2019-04-23T10:47:12.186Z,99353.72
2019-04-23T11:05:52.164Z,99341.88
2019-04-23T11:12:01.051Z,99338.32
2019-04-23T11:17:58.442Z,99338.41
2019-04-23T11:24:20.702Z,99332.44
2019-04-23T11:42:44.338Z,99329.87
2019-04-23T11:54:53.545Z,99323.98
2019-04-23T12:01:42.095Z,99332.11
2019-04-23T12:07:57.561Z,99320.78
2019-04-23T12:14:22.821Z,99322.84
2019-04-23T12:20:25.657Z,99318.74
2019-04-23T12:26:40.762Z,99310.64
2019-04-23T12:38:41.010Z,99301.38
2019-04-23T12:44:58.102Z,99289.61
2019-04-23T12:51:28.176Z,99281.61
2019-04-23T12:57:12.647Z,99276.91
2019-04-23T13:03:18.296Z,99260.83
2019-04-23T13:15:34.710Z,99259.85
2019-04-23T13:33:58.099Z,99243.73
2019-04-23T13:40:13.041Z,99232.98
2019-04-23T13:46:12.821Z,99229.69
2019-04-23T13:52:47.850Z,99232.85
2019-04-23T14:11:15.836Z,99204.31
2019-04-23T14:17:13.077Z,99202.73
2019-04-23T14:23:14.154Z,99182.34
2019-04-23T14:29:26.450Z,99182.80
2019-04-23T14:35:40.299Z,99176.31
2019-04-23T14:41:26.246Z,99175.53
2019-04-23T14:47:48.702Z,99170.02
2019-04-23T14:53:48.694Z,99166.27
2019-04-23T15:00:03.263Z,99166.31
2019-04-23T15:06:26.123Z,99164.15
2019-04-23T15:12:22.593Z,99161.88
2019-04-23T15:18:44.715Z,99163.84
2019-04-23T15:24:52.423Z,99152.63
2019-04-23T15:30:57.309Z,99152.83
2019-04-23T15:37:14.618Z,99151.23
2019-04-23T15:43:12.205Z,99151.81
2019-04-23T15:55:20.940Z,99143.92
2019-04-23T16:07:29.652Z,99145.35
2019-04-23T16:14:04.613Z,99142.81
2019-04-23T16:20:33.403Z,99146.77
2019-04-23T16:26:36.994Z,99145.64
2019-04-23T16:39:11.928Z,99130.83
2019-04-23T16:45:23.936Z,99132.13
2019-04-23T16:51:29.172Z,99140.75
2019-04-23T16:57:45.743Z,99133.68
2019-04-23T17:10:11.515Z,99131.56
2019-04-23T17:22:06.277Z,99130.52
2019-04-23T17:40:39.502Z,99127.95
2019-04-23T17:46:46.641Z,99135.68
2019-04-23T17:52:58.354Z,99137.67
2019-04-23T17:59:00.733Z,99144.30
2019-04-23T18:05:13.015Z,99145.28
2019-04-23T18:23:28.494Z,99156.87
2019-04-23T18:29:51.603Z,99159.08
2019-04-23T18:35:43.984Z,99162.66
2019-04-23T18:42:11.661Z,99159.78
2019-04-23T18:54:32.960Z,99169.50
2019-04-23T19:06:51.118Z,99169.25
2019-04-23T19:13:23.365Z,99172.13
2019-04-23T19:19:31.752Z,99172.09
2019-04-23T19:25:28.044Z,99175.30
2019-04-23T19:44:02.890Z,99181.28
2019-04-23T19:50:17.942Z,99184.97
2019-04-23T19:56:29.318Z,99190.09
2019-04-23T20:02:45.326Z,99188.92
2019-04-23T20:27:06.032Z,99196.34
2019-04-23T20:39:21.527Z,99191.98
2019-04-23T20:45:38.752Z,99188.94
2019-04-23T20:51:41.242Z,99183.55
2019-04-23T20:58:07.212Z,99189.50
2019-04-23T21:04:17.289Z,99182.59
2019-04-23T21:16:36.022Z,99191.53
2019-04-23T21:22:51.886Z,99190.21
2019-04-23T21:28:54.034Z,99190.35
2019-04-23T21:35:16.246Z,99191.61
2019-04-23T21:53:47.554Z,99184.18
2019-04-23T21:59:52.798Z,99178.71
2019-04-23T22:06:07.764Z,99189.32
2019-04-23T22:12:11.206Z,99192.69
2019-04-23T22:18:18.252Z,99195.67
2019-04-23T22:24:15.823Z,99202.89
2019-04-23T22:30:33.410Z,99216.23
2019-04-23T22:36:44.496Z,99212.36
2019-04-23T22:43:04.108Z,99214.72
2019-04-23T22:49:18.024Z,99218.70
2019-04-23T22:55:07.953Z,99221.44
2019-04-23T23:07:28.656Z,99224.27
2019-04-23T23:13:48.094Z,99225.73
2019-04-23T23:19:57.223Z,99229.17
2019-04-23T23:25:52.036Z,99235.44
2019-04-23T23:32:02.229Z,99232.11
2019-04-23T23:38:08.436Z,99232.43
2019-04-23T23:44:29.890Z,99231.33
2019-04-23T23:56:19.338Z,99228.87
